LiveATC.Net - Listen to live air traffic control over the Internet!


ICAO: KCRQ  IATA: CLD   Airport: Mc Clellan-Palomar Airport
City: Carlsbad   State/Province: California
Country: United States   Continent: North America
KCRQ METAR Weather: KCRQ 231353Z AUTO 10003KT 10SM FEW027 SCT036 14/13 A2983 RMK AO2 SLP100 T01440128
KCRQ Flight Activity (FlightAware)
KCRQ Airport Info   (AirNav) (iFlightPlanner)
KCRQ VFR Sectional Chart   (iFlightPlanner) 
KCRQ IFR Low Chart   (iFlightPlanner) 
KCRQ Tower #2
Feed Status: DOWN
Last heard on: 2017-09-19 01:21:03 (4 days 13 hours 11 minutes ago)
KCRQ Tower #2 Audio Archives
FacilityFrequency
Palomar Tower118.600


NOTICE

Unauthorized use prohibited. See LiveATC.net Terms of Service


Find LiveATC Audio Streams


Airport/ARTCC Code

Frequency Search
(e.g., 124.400, 128.75)
Site-wide search
 


Browse LiveATC Feeds
LiveATC Coverage Map
Top 50 LiveATC Feeds
Bad Weather Areas

LiveATC FAQ
Offer a LiveATC Feed
Contact LiveATC.net
Press Inquiries

LiveATC on iPhone
LiveATC on Android

Windows Phone
Windows 8/10

LiveATC Mobile
(Mobile browser)

ATC Audio Archives
Interesting Recordings

LiveATC Forums


Home Page
About LiveATC.net
Make a Donation
LiveATC Store

Terms of Use
Privacy Policy

Canadian Air Freqs

AIRMETs/SIGMETs

FAA Airport Status
Nat'l Airspace Status
Arrival Demand Charts


Server Software By:
Icecast.org
Liquidsoap